createdAt,value
2017-10-13T00:00:00.200Z,8.63
2017-10-13T00:01:00.189Z,8.63
2017-10-13T00:02:00.218Z,8.56
2017-10-13T00:03:00.199Z,8.56
2017-10-13T00:04:00.203Z,8.50
2017-10-13T00:05:00.273Z,8.50
2017-10-13T00:06:00.224Z,8.56
2017-10-13T00:07:00.258Z,8.56
2017-10-13T00:08:00.240Z,8.50
2017-10-13T00:09:00.246Z,8.50
2017-10-13T00:10:00.254Z,8.44
2017-10-13T00:11:00.239Z,8.38
2017-10-13T00:12:00.309Z,8.38
2017-10-13T00:13:00.270Z,8.38
2017-10-13T00:14:00.281Z,8.38
2017-10-13T00:15:00.270Z,8.38
2017-10-13T00:16:00.281Z,8.31
2017-10-13T00:17:00.302Z,8.38
2017-10-13T00:18:00.318Z,8.50
2017-10-13T00:19:00.317Z,8.50
2017-10-13T00:20:00.303Z,8.56
2017-10-13T00:21:00.338Z,8.63
2017-10-13T00:22:00.366Z,8.63
2017-10-13T00:23:00.335Z,8.63
2017-10-13T00:24:00.348Z,8.56
2017-10-13T00:25:00.359Z,8.50
2017-10-13T00:26:00.378Z,8.50
2017-10-13T00:27:00.382Z,8.50
2017-10-13T00:28:00.363Z,8.44
2017-10-13T00:29:00.399Z,8.44
2017-10-13T00:30:00.368Z,8.44
2017-10-13T00:31:00.373Z,8.38
2017-10-13T00:32:00.387Z,8.38
2017-10-13T00:33:00.380Z,8.31
2017-10-13T00:34:00.396Z,8.31
2017-10-13T00:35:00.401Z,8.38
2017-10-13T00:36:00.418Z,8.38
2017-10-13T00:37:00.425Z,8.31
2017-10-13T00:38:00.428Z,8.31
2017-10-13T00:39:00.444Z,8.31
2017-10-13T00:40:00.451Z,8.31
2017-10-13T00:41:00.436Z,8.31
2017-10-13T00:42:00.453Z,8.31
2017-10-13T00:43:00.451Z,8.38
2017-10-13T00:44:00.454Z,8.38
2017-10-13T00:45:00.467Z,8.31
2017-10-13T00:46:00.470Z,8.38
2017-10-13T00:47:00.493Z,8.31
2017-10-13T00:48:00.478Z,8.31
2017-10-13T00:49:00.509Z,8.31
2017-10-13T00:50:00.551Z,8.38
2017-10-13T00:51:00.506Z,8.38
2017-10-13T00:52:00.508Z,8.31
2017-10-13T00:53:00.509Z,8.31
2017-10-13T00:54:00.520Z,8.25
2017-10-13T00:55:00.524Z,8.25
2017-10-13T00:56:00.535Z,8.25
2017-10-13T00:57:00.542Z,8.25
2017-10-13T00:58:00.540Z,8.25
2017-10-13T00:59:00.605Z,8.31
2017-10-13T01:00:00.592Z,8.31
2017-10-13T01:01:00.579Z,8.25
2017-10-13T01:02:00.581Z,8.31
2017-10-13T01:03:00.575Z,8.38
2017-10-13T01:04:00.614Z,8.44
2017-10-13T01:05:00.608Z,8.50
2017-10-13T01:06:00.617Z,8.56
2017-10-13T01:07:00.605Z,8.50
2017-10-13T01:08:00.606Z,8.50
2017-10-13T01:09:00.614Z,8.56
2017-10-13T01:10:00.632Z,8.50
2017-10-13T01:11:00.630Z,8.50
2017-10-13T01:12:00.646Z,8.50
2017-10-13T01:13:00.651Z,8.50
2017-10-13T01:14:00.651Z,8.44
2017-10-13T01:15:00.658Z,8.44
2017-10-13T01:16:00.660Z,8.31
2017-10-13T01:17:00.654Z,8.31
2017-10-13T01:18:00.695Z,8.25
2017-10-13T01:19:00.711Z,8.25
2017-10-13T01:20:00.685Z,8.25
2017-10-13T01:21:00.713Z,8.19
2017-10-13T01:22:00.687Z,8.19
2017-10-13T01:23:00.705Z,8.13
2017-10-13T01:24:00.721Z,8.13
2017-10-13T01:25:00.702Z,8.13
2017-10-13T01:26:00.706Z,8.19
2017-10-13T01:27:00.730Z,8.19
2017-10-13T01:28:00.729Z,8.13
2017-10-13T01:29:00.732Z,8.13
2017-10-13T01:30:00.734Z,8.06
2017-10-13T01:31:00.748Z,8.13
2017-10-13T01:32:00.766Z,8.13
2017-10-13T01:33:00.752Z,8.19
2017-10-13T01:34:00.769Z,8.25
2017-10-13T01:35:00.780Z,8.19
2017-10-13T01:36:00.801Z,8.19
2017-10-13T01:37:00.801Z,8.13
2017-10-13T01:38:00.819Z,8.13
2017-10-13T01:39:00.815Z,8.13
2017-10-13T01:40:00.797Z,8.06
2017-10-13T01:41:00.813Z,8.06
2017-10-13T01:42:00.800Z,8.13
2017-10-13T01:43:00.872Z,8.13
2017-10-13T01:44:00.817Z,8.13
2017-10-13T01:45:00.851Z,8.06
2017-10-13T01:46:00.869Z,8.06
2017-10-13T01:47:00.853Z,8.06
2017-10-13T01:48:00.872Z,8.06
2017-10-13T01:49:00.851Z,8.13
2017-10-13T01:50:00.895Z,8.06
2017-10-13T01:51:00.865Z,8.00
2017-10-13T01:52:00.889Z,8.06
2017-10-13T01:53:00.916Z,8.00
2017-10-13T01:54:00.883Z,8.00
2017-10-13T01:55:00.900Z,8.00
2017-10-13T01:56:00.901Z,8.00
2017-10-13T01:57:00.943Z,7.94
2017-10-13T01:58:00.919Z,8.06
2017-10-13T01:59:00.917Z,8.06
2017-10-13T02:00:00.949Z,8.06
2017-10-13T02:01:00.932Z,8.06
2017-10-13T02:02:00.933Z,8.13
2017-10-13T02:03:00.949Z,8.13
2017-10-13T02:04:00.982Z,8.13
2017-10-13T02:05:00.964Z,8.19
2017-10-13T02:06:00.963Z,8.19
2017-10-13T02:07:01.018Z,8.19
2017-10-13T02:08:00.979Z,8.13
2017-10-13T02:09:00.997Z,8.13
2017-10-13T02:10:00.988Z,8.13
2017-10-13T02:11:01.027Z,8.06
2017-10-13T02:12:01.035Z,8.06
2017-10-13T02:13:01.021Z,8.06
2017-10-13T02:14:01.013Z,8.06
2017-10-13T02:15:01.072Z,8.06
2017-10-13T02:16:01.038Z,8.06
2017-10-13T02:17:01.019Z,8.06
2017-10-13T02:18:01.024Z,8.00
2017-10-13T02:19:01.070Z,8.00
2017-10-13T02:20:01.036Z,8.00
2017-10-13T02:21:01.047Z,8.00
2017-10-13T02:22:01.048Z,8.00
2017-10-13T02:23:01.116Z,8.00
2017-10-13T02:24:01.050Z,8.00
2017-10-13T02:25:01.076Z,8.00
2017-10-13T02:26:01.065Z,7.94
2017-10-13T02:27:01.078Z,7.94
2017-10-13T02:28:01.094Z,7.94
2017-10-13T02:29:01.096Z,7.88
2017-10-13T02:30:01.106Z,7.88
2017-10-13T02:31:01.119Z,7.88
2017-10-13T02:32:01.168Z,7.88
2017-10-13T02:33:01.145Z,7.88
2017-10-13T02:34:01.134Z,7.81
2017-10-13T02:35:01.123Z,7.81
2017-10-13T02:36:01.133Z,7.81
2017-10-13T02:37:01.128Z,7.75
2017-10-13T02:38:01.158Z,7.75
2017-10-13T02:39:01.155Z,7.75
2017-10-13T02:40:01.166Z,7.75
2017-10-13T02:41:01.161Z,7.69
2017-10-13T02:42:01.192Z,7.69
2017-10-13T02:43:01.216Z,7.75
2017-10-13T02:44:01.204Z,7.75
2017-10-13T02:45:01.179Z,7.75
2017-10-13T02:46:01.214Z,7.75
2017-10-13T02:47:01.255Z,7.75
2017-10-13T02:48:01.247Z,7.75
2017-10-13T02:49:01.206Z,7.81
2017-10-13T02:50:01.207Z,7.81
2017-10-13T02:51:01.247Z,7.81
2017-10-13T02:52:01.219Z,7.81
2017-10-13T02:53:01.252Z,7.81
2017-10-13T02:54:01.255Z,7.81
2017-10-13T02:55:01.271Z,7.81
2017-10-13T02:56:01.261Z,7.88
2017-10-13T02:57:01.255Z,7.88
2017-10-13T02:58:01.250Z,7.81
2017-10-13T02:59:01.269Z,7.81
2017-10-13T03:00:01.266Z,7.81
2017-10-13T03:01:01.288Z,7.81
2017-10-13T03:02:01.291Z,7.81
2017-10-13T03:03:01.314Z,7.81
2017-10-13T03:04:01.282Z,7.81
2017-10-13T03:05:01.302Z,7.75
2017-10-13T03:06:01.301Z,7.75
2017-10-13T03:07:01.348Z,7.69
2017-10-13T03:08:01.348Z,7.69
2017-10-13T03:09:01.334Z,7.69
2017-10-13T03:10:01.359Z,7.75
2017-10-13T03:11:01.361Z,7.75
2017-10-13T03:12:01.348Z,7.75
2017-10-13T03:13:01.343Z,7.75
2017-10-13T03:14:01.340Z,7.75
2017-10-13T03:15:01.375Z,7.69
2017-10-13T03:16:01.385Z,7.63
2017-10-13T03:17:01.408Z,7.69
2017-10-13T03:18:01.370Z,7.69
2017-10-13T03:19:01.418Z,7.75
2017-10-13T03:20:01.413Z,7.75
2017-10-13T03:21:01.399Z,7.81
2017-10-13T03:22:01.390Z,7.75
2017-10-13T03:23:01.398Z,7.75
2017-10-13T03:24:01.419Z,7.75
2017-10-13T03:25:01.430Z,7.75
2017-10-13T03:26:01.421Z,7.75
2017-10-13T03:27:01.434Z,7.75
2017-10-13T03:28:01.449Z,7.88
2017-10-13T03:29:01.436Z,7.94
2017-10-13T03:30:01.471Z,8.00
2017-10-13T03:31:01.447Z,8.00
2017-10-13T03:32:01.467Z,8.00
2017-10-13T03:33:01.451Z,7.94
2017-10-13T03:34:01.460Z,8.00
2017-10-13T03:35:01.507Z,8.00
2017-10-13T03:36:01.466Z,8.00
2017-10-13T03:37:01.498Z,8.13
2017-10-13T03:38:01.487Z,8.13
2017-10-13T03:39:01.508Z,8.13
2017-10-13T03:40:01.543Z,8.13
2017-10-13T03:41:01.536Z,8.06
2017-10-13T03:42:01.529Z,8.19
2017-10-13T03:43:01.550Z,8.19
2017-10-13T03:44:01.524Z,8.19
2017-10-13T03:45:01.519Z,8.19
2017-10-13T03:46:01.547Z,8.25
2017-10-13T03:47:01.565Z,8.25
2017-10-13T03:48:01.585Z,8.25
2017-10-13T03:49:01.565Z,8.25
2017-10-13T03:50:01.573Z,8.25
2017-10-13T03:51:01.559Z,8.31
2017-10-13T03:52:01.568Z,8.31
2017-10-13T03:53:01.591Z,8.38
2017-10-13T03:54:01.604Z,8.38
2017-10-13T03:55:01.585Z,8.44
2017-10-13T03:56:01.602Z,8.50
2017-10-13T03:57:01.596Z,8.50
2017-10-13T03:58:01.624Z,8.56
2017-10-13T03:59:01.608Z,8.63
2017-10-13T04:00:01.612Z,8.63
2017-10-13T04:01:01.655Z,8.69
2017-10-13T04:02:01.621Z,8.69
2017-10-13T04:03:01.628Z,8.69
2017-10-13T04:04:01.681Z,8.75
2017-10-13T04:05:01.687Z,8.75
2017-10-13T04:06:01.646Z,8.81
2017-10-13T04:07:01.672Z,8.81
2017-10-13T04:08:01.670Z,8.75
2017-10-13T04:09:01.673Z,8.75
2017-10-13T04:10:01.696Z,8.75
2017-10-13T04:11:01.676Z,8.75
2017-10-13T04:12:01.684Z,8.75
2017-10-13T04:13:01.727Z,8.75
2017-10-13T04:14:01.719Z,8.75
2017-10-13T04:15:01.712Z,8.75
2017-10-13T04:16:01.730Z,8.75
2017-10-13T04:17:01.712Z,8.75
2017-10-13T04:18:01.722Z,8.69
2017-10-13T04:19:01.723Z,8.75
2017-10-13T04:20:01.724Z,8.75
2017-10-13T04:21:01.744Z,8.75
2017-10-13T04:22:01.806Z,8.75
2017-10-13T04:23:01.760Z,8.75
2017-10-13T04:24:01.767Z,8.75
2017-10-13T04:25:01.773Z,8.81
2017-10-13T04:26:01.788Z,8.81
2017-10-13T04:27:01.775Z,8.81
2017-10-13T04:28:01.787Z,8.81
2017-10-13T04:29:01.788Z,8.81
2017-10-13T04:30:01.794Z,8.81
2017-10-13T04:31:01.798Z,8.88
2017-10-13T04:32:01.807Z,8.81
2017-10-13T04:33:01.811Z,8.88
2017-10-13T04:34:01.817Z,8.88
2017-10-13T04:35:01.818Z,8.88
2017-10-13T04:36:01.825Z,8.81
2017-10-13T04:37:01.876Z,8.81
2017-10-13T04:38:01.855Z,8.81
2017-10-13T04:39:01.857Z,8.75
2017-10-13T04:40:01.857Z,8.75
2017-10-13T04:41:01.864Z,8.75
2017-10-13T04:42:01.902Z,8.75
2017-10-13T04:43:01.872Z,8.75
2017-10-13T04:44:01.878Z,8.69
2017-10-13T04:45:01.896Z,8.69
2017-10-13T04:46:01.897Z,8.69
2017-10-13T04:47:01.898Z,8.63
2017-10-13T04:48:01.944Z,8.63
2017-10-13T04:49:01.915Z,8.56
2017-10-13T04:50:01.971Z,8.56
2017-10-13T04:51:01.960Z,8.50
2017-10-13T04:52:01.930Z,8.44
2017-10-13T04:53:01.957Z,8.38
2017-10-13T04:54:01.961Z,8.31
2017-10-13T04:55:01.949Z,8.25
2017-10-13T04:56:01.965Z,8.25
2017-10-13T04:57:01.969Z,8.13
2017-10-13T04:58:01.967Z,8.06
2017-10-13T04:59:01.978Z,8.06
2017-10-13T05:00:01.995Z,7.94
2017-10-13T05:01:01.987Z,7.94
2017-10-13T05:02:02.003Z,7.88
2017-10-13T05:03:01.988Z,7.81
2017-10-13T05:04:02.011Z,7.75
2017-10-13T05:05:02.023Z,7.75
2017-10-13T05:06:02.019Z,7.75
2017-10-13T05:07:02.058Z,7.69
2017-10-13T05:08:02.038Z,7.69
2017-10-13T05:09:02.056Z,7.63
2017-10-13T05:10:02.059Z,7.63
2017-10-13T05:11:02.035Z,7.63
2017-10-13T05:12:02.055Z,7.56
2017-10-13T05:13:02.058Z,7.56
2017-10-13T05:14:02.051Z,7.56
2017-10-13T05:15:02.069Z,7.56
2017-10-13T05:16:02.071Z,7.56
2017-10-13T05:17:02.071Z,7.56
2017-10-13T05:18:02.091Z,7.56
2017-10-13T05:19:02.118Z,7.50
2017-10-13T05:20:02.092Z,7.50
2017-10-13T05:21:02.111Z,7.50
2017-10-13T05:22:02.104Z,7.50
2017-10-13T05:23:02.155Z,7.56
2017-10-13T05:24:02.113Z,7.56
2017-10-13T05:25:02.131Z,7.63
2017-10-13T05:26:02.142Z,7.63
2017-10-13T05:27:02.163Z,7.63
2017-10-13T05:28:02.170Z,7.63
2017-10-13T05:29:02.156Z,7.63
2017-10-13T05:30:02.152Z,7.69
2017-10-13T05:31:02.183Z,7.63
2017-10-13T05:32:02.180Z,7.63
2017-10-13T05:33:02.201Z,7.63
2017-10-13T05:34:02.188Z,7.63
2017-10-13T05:35:02.196Z,7.63
2017-10-13T05:36:02.243Z,7.63
2017-10-13T05:37:02.205Z,7.63
2017-10-13T05:38:02.196Z,7.63
2017-10-13T05:39:02.218Z,7.63
2017-10-13T05:40:02.243Z,7.63
2017-10-13T05:41:02.215Z,7.63
2017-10-13T05:42:02.231Z,7.56
2017-10-13T05:43:02.259Z,7.56
2017-10-13T05:44:02.276Z,7.50
2017-10-13T05:45:02.250Z,7.50
2017-10-13T05:46:02.266Z,7.50
2017-10-13T05:47:02.262Z,7.50
2017-10-13T05:48:02.255Z,7.50
2017-10-13T05:49:02.317Z,7.44
2017-10-13T05:50:02.283Z,7.50
2017-10-13T05:51:02.288Z,7.44
2017-10-13T05:52:02.302Z,7.50
2017-10-13T05:53:02.343Z,7.50
2017-10-13T05:54:02.288Z,7.50
2017-10-13T05:55:02.295Z,7.50
2017-10-13T05:56:02.336Z,7.50
2017-10-13T05:57:02.312Z,7.50
2017-10-13T05:58:02.357Z,7.56
2017-10-13T05:59:02.343Z,7.56
2017-10-13T06:00:02.342Z,7.56
2017-10-13T06:01:02.365Z,7.63
2017-10-13T06:02:02.366Z,7.69
2017-10-13T06:03:02.364Z,7.75
2017-10-13T06:04:02.395Z,7.88
2017-10-13T06:05:02.384Z,7.94
2017-10-13T06:06:02.379Z,8.06
2017-10-13T06:07:02.385Z,8.13
2017-10-13T06:08:02.373Z,8.19
2017-10-13T06:09:02.411Z,8.19
2017-10-13T06:10:02.421Z,8.19
2017-10-13T06:11:02.392Z,8.19
2017-10-13T06:12:02.401Z,8.25
2017-10-13T06:13:02.432Z,8.25
2017-10-13T06:14:02.420Z,8.25
2017-10-13T06:15:02.428Z,8.25
2017-10-13T06:16:02.417Z,8.25
2017-10-13T06:17:02.455Z,8.25
2017-10-13T06:18:02.467Z,8.25
2017-10-13T06:19:02.486Z,8.31
2017-10-13T06:20:02.458Z,8.31
2017-10-13T06:21:02.457Z,8.38
2017-10-13T06:22:02.462Z,8.38
2017-10-13T06:23:02.467Z,8.44
2017-10-13T06:24:02.466Z,8.44
2017-10-13T06:25:02.519Z,8.56
2017-10-13T06:26:02.480Z,8.56
2017-10-13T06:27:02.548Z,8.56
2017-10-13T06:28:02.493Z,8.56
2017-10-13T06:29:02.512Z,8.56
2017-10-13T06:30:02.520Z,8.63
2017-10-13T06:31:02.504Z,8.63
2017-10-13T06:32:02.564Z,8.63
2017-10-13T06:33:02.557Z,8.69
2017-10-13T06:34:02.546Z,8.69
2017-10-13T06:35:02.574Z,8.69
2017-10-13T06:36:02.567Z,8.69
2017-10-13T06:37:02.556Z,8.69
2017-10-13T06:38:02.606Z,8.75
2017-10-13T06:39:02.567Z,8.75
2017-10-13T06:40:02.586Z,8.75
2017-10-13T06:41:02.577Z,8.75
2017-10-13T06:42:02.614Z,8.75
2017-10-13T06:43:02.629Z,8.81
2017-10-13T06:44:02.628Z,8.81
2017-10-13T06:45:02.621Z,8.88
2017-10-13T06:46:02.609Z,8.88
2017-10-13T06:47:02.652Z,8.88
2017-10-13T06:48:02.650Z,8.94
2017-10-13T06:49:02.636Z,8.94
2017-10-13T06:50:02.629Z,9.00
2017-10-13T06:51:02.674Z,9.00
2017-10-13T06:52:02.666Z,8.94
2017-10-13T06:53:02.654Z,9.00
2017-10-13T06:54:02.678Z,9.00
2017-10-13T06:55:02.704Z,9.00
2017-10-13T06:56:02.688Z,9.00
2017-10-13T06:57:02.694Z,9.00
2017-10-13T06:58:02.686Z,9.00
2017-10-13T06:59:02.731Z,9.00
2017-10-13T07:00:02.719Z,9.06
2017-10-13T07:01:02.706Z,9.06
2017-10-13T07:02:02.717Z,9.06
2017-10-13T07:03:02.743Z,9.13
2017-10-13T07:04:02.770Z,9.13
2017-10-13T07:05:02.742Z,9.19
2017-10-13T07:06:02.747Z,9.19
2017-10-13T07:07:02.781Z,9.19
2017-10-13T07:08:02.757Z,9.19
2017-10-13T07:09:02.761Z,9.19
2017-10-13T07:10:02.798Z,9.19
2017-10-13T07:11:02.792Z,9.19
2017-10-13T07:12:02.804Z,9.25
2017-10-13T07:13:02.852Z,9.25
2017-10-13T07:14:02.840Z,9.31
2017-10-13T07:15:02.807Z,9.31
2017-10-13T07:16:02.822Z,9.38
2017-10-13T07:17:02.842Z,9.38
2017-10-13T07:18:02.857Z,9.38
2017-10-13T07:19:02.832Z,9.44
2017-10-13T07:20:02.861Z,9.44
2017-10-13T07:21:02.846Z,9.44
2017-10-13T07:22:02.875Z,9.44
2017-10-13T07:23:02.882Z,9.50
2017-10-13T07:24:02.888Z,9.50
2017-10-13T07:25:02.902Z,9.50
2017-10-13T07:26:02.890Z,9.56
2017-10-13T07:27:02.890Z,9.63
2017-10-13T07:28:02.911Z,9.63
2017-10-13T07:29:02.930Z,9.69
2017-10-13T07:30:02.922Z,9.69
2017-10-13T07:31:02.972Z,9.75
2017-10-13T07:32:02.918Z,9.75
2017-10-13T07:33:02.955Z,9.81
2017-10-13T07:34:02.973Z,9.88
2017-10-13T07:35:02.977Z,9.94
2017-10-13T07:36:02.959Z,10.00
2017-10-13T07:37:02.961Z,10.06
2017-10-13T07:38:02.978Z,10.13
2017-10-13T07:39:02.987Z,10.19
2017-10-13T07:40:03.002Z,10.25
2017-10-13T07:41:03.001Z,10.38
2017-10-13T07:42:03.051Z,10.50
2017-10-13T07:43:03.012Z,10.75
2017-10-13T07:44:03.034Z,11.00
2017-10-13T07:45:03.045Z,11.19
2017-10-13T07:46:03.071Z,11.31
2017-10-13T07:47:03.064Z,11.44
2017-10-13T07:48:03.098Z,11.63
2017-10-13T07:49:03.089Z,11.88
2017-10-13T07:50:03.106Z,12.06
2017-10-13T07:51:03.102Z,12.25
2017-10-13T07:52:03.144Z,12.44
2017-10-13T07:53:03.100Z,12.63
2017-10-13T07:54:03.127Z,12.75
2017-10-13T07:55:03.169Z,12.81
2017-10-13T07:56:03.178Z,12.88
2017-10-13T07:57:03.145Z,12.94
2017-10-13T07:58:03.153Z,13.00
2017-10-13T07:59:03.168Z,13.06
2017-10-13T08:00:03.172Z,13.06
2017-10-13T08:01:03.195Z,13.06
2017-10-13T08:02:03.189Z,13.19
2017-10-13T08:03:03.207Z,13.13
2017-10-13T08:04:03.204Z,13.19
2017-10-13T08:05:03.242Z,13.25
2017-10-13T08:06:03.271Z,13.44
2017-10-13T08:07:03.239Z,13.50
2017-10-13T08:08:03.295Z,13.69
2017-10-13T08:09:03.298Z,13.88
2017-10-13T08:10:03.274Z,14.00
2017-10-13T08:11:03.267Z,14.31
2017-10-13T08:12:03.280Z,14.56
2017-10-13T08:13:03.294Z,14.69
2017-10-13T08:14:03.333Z,14.88
2017-10-13T08:15:03.322Z,14.88
2017-10-13T08:16:03.347Z,14.81
2017-10-13T08:17:03.401Z,14.94
2017-10-13T08:18:03.346Z,15.19
2017-10-13T08:19:03.389Z,15.31
2017-10-13T08:20:03.364Z,15.38
2017-10-13T08:21:03.378Z,15.50
2017-10-13T08:22:03.397Z,15.50
2017-10-13T08:23:03.413Z,15.56
2017-10-13T08:24:03.419Z,15.69
2017-10-13T08:25:03.433Z,15.75
2017-10-13T08:26:03.444Z,15.88
2017-10-13T08:27:03.440Z,15.81
2017-10-13T08:28:03.434Z,15.75
2017-10-13T08:29:03.453Z,15.94
2017-10-13T08:30:03.473Z,16.06
2017-10-13T08:31:03.509Z,16.13
2017-10-13T08:32:03.493Z,16.19
2017-10-13T08:33:03.498Z,16.31
2017-10-13T08:34:03.511Z,16.44
2017-10-13T08:35:03.558Z,16.38
2017-10-13T08:36:03.527Z,16.31
2017-10-13T08:37:03.578Z,16.00
2017-10-13T08:38:03.576Z,15.50
2017-10-13T08:39:03.583Z,15.06
2017-10-13T08:40:03.599Z,14.56
2017-10-13T08:41:03.631Z,14.25
2017-10-13T08:42:03.618Z,14.06
2017-10-13T08:43:03.607Z,13.94
2017-10-13T08:44:03.618Z,13.75
2017-10-13T08:45:03.621Z,13.69
2017-10-13T08:46:03.669Z,13.63
2017-10-13T08:47:03.650Z,13.63
2017-10-13T08:48:03.671Z,13.56
2017-10-13T08:49:03.698Z,13.56
2017-10-13T08:50:03.699Z,13.50
2017-10-13T08:51:03.686Z,13.50
2017-10-13T08:52:03.701Z,13.50
2017-10-13T08:53:03.705Z,13.50
2017-10-13T08:54:03.713Z,13.44
2017-10-13T08:55:03.716Z,13.38
2017-10-13T08:56:03.782Z,13.38
2017-10-13T08:57:03.772Z,13.38
2017-10-13T08:58:03.769Z,13.38
2017-10-13T08:59:03.836Z,13.44
2017-10-13T09:00:03.802Z,13.44
2017-10-13T09:01:03.787Z,13.44
2017-10-13T09:02:03.803Z,13.38
2017-10-13T09:03:03.803Z,13.38
2017-10-13T09:04:03.837Z,13.31
2017-10-13T09:05:03.828Z,13.31
2017-10-13T09:06:03.842Z,13.25
2017-10-13T09:07:03.876Z,13.25
2017-10-13T09:08:03.878Z,13.25
2017-10-13T09:09:03.875Z,13.25
2017-10-13T09:10:03.921Z,13.25
2017-10-13T09:11:03.913Z,13.31
2017-10-13T09:12:03.931Z,13.31
2017-10-13T09:13:03.935Z,13.50
2017-10-13T09:14:03.971Z,13.56
2017-10-13T09:15:03.934Z,13.56
2017-10-13T09:16:03.946Z,13.50
2017-10-13T09:17:03.942Z,13.44
2017-10-13T09:18:03.968Z,13.50
2017-10-13T09:19:03.981Z,13.44
2017-10-13T09:20:03.983Z,13.44
2017-10-13T09:21:04.018Z,13.56
2017-10-13T09:22:04.014Z,13.50
2017-10-13T09:23:04.029Z,13.50
2017-10-13T09:24:04.032Z,13.50
2017-10-13T09:25:04.060Z,13.50
2017-10-13T09:26:04.079Z,13.69
2017-10-13T09:27:04.063Z,13.63
2017-10-13T09:28:04.056Z,13.63
2017-10-13T09:29:04.082Z,13.75
2017-10-13T09:30:04.101Z,13.88
2017-10-13T09:31:04.115Z,13.88
2017-10-13T09:32:04.110Z,13.88
2017-10-13T09:33:04.162Z,13.81
2017-10-13T09:34:04.130Z,13.81
2017-10-13T09:35:04.197Z,13.75
2017-10-13T09:36:04.150Z,13.75
2017-10-13T09:37:04.154Z,13.75
2017-10-13T09:38:04.187Z,13.75
2017-10-13T09:39:04.212Z,13.88
2017-10-13T09:40:04.202Z,13.81
2017-10-13T09:41:04.205Z,13.81
2017-10-13T09:42:04.217Z,13.75
2017-10-13T09:43:04.237Z,13.75
2017-10-13T09:44:04.230Z,13.75
2017-10-13T09:45:04.247Z,13.81
2017-10-13T09:46:04.266Z,13.94
2017-10-13T09:47:04.260Z,13.88
2017-10-13T09:48:04.286Z,13.81
2017-10-13T09:49:04.298Z,13.88
2017-10-13T09:50:04.311Z,13.88
2017-10-13T09:51:04.302Z,13.94
2017-10-13T09:52:04.329Z,13.94
2017-10-13T09:53:04.327Z,13.94
2017-10-13T09:54:04.355Z,14.00
2017-10-13T09:55:04.379Z,14.13
2017-10-13T09:56:04.358Z,14.31
2017-10-13T09:57:04.378Z,14.31
2017-10-13T09:58:04.392Z,14.31
2017-10-13T09:59:04.385Z,14.25
2017-10-13T10:00:04.411Z,14.31
2017-10-13T10:01:04.411Z,14.44
2017-10-13T10:02:04.458Z,14.44
2017-10-13T10:03:04.440Z,14.44
2017-10-13T10:04:04.452Z,14.38
2017-10-13T10:05:04.486Z,14.50
2017-10-13T10:06:04.484Z,14.50
2017-10-13T10:07:04.480Z,14.63
2017-10-13T10:08:04.505Z,14.63
2017-10-13T10:09:04.512Z,14.75
2017-10-13T10:10:04.512Z,14.81
2017-10-13T10:11:04.546Z,14.94
2017-10-13T10:12:04.554Z,15.00
2017-10-13T10:13:04.545Z,15.19
2017-10-13T10:14:04.563Z,15.31
2017-10-13T10:15:04.583Z,15.44
2017-10-13T10:16:04.573Z,15.50
2017-10-13T10:17:04.606Z,15.69
2017-10-13T10:18:04.612Z,15.75
2017-10-13T10:19:04.629Z,15.94
2017-10-13T10:20:04.618Z,16.06
2017-10-13T10:21:04.634Z,16.13
2017-10-13T10:22:04.667Z,16.13
2017-10-13T10:23:04.694Z,16.19
2017-10-13T10:24:04.683Z,16.25
2017-10-13T10:25:04.701Z,16.38
2017-10-13T10:26:04.696Z,16.50
2017-10-13T10:27:04.706Z,16.69
2017-10-13T10:28:04.734Z,16.81
2017-10-13T10:29:04.726Z,16.88
2017-10-13T10:30:04.736Z,16.94
2017-10-13T10:31:04.753Z,17.13
2017-10-13T10:32:04.781Z,17.50
2017-10-13T10:33:04.777Z,18.25
2017-10-13T10:34:04.797Z,19.19
2017-10-13T10:35:04.802Z,19.69
2017-10-13T10:36:04.826Z,20.00
2017-10-13T10:37:04.843Z,20.50
2017-10-13T10:38:04.857Z,21.00
2017-10-13T10:39:04.845Z,21.31
2017-10-13T10:40:04.867Z,21.50
2017-10-13T10:41:04.879Z,21.50
2017-10-13T10:42:04.892Z,21.69
2017-10-13T10:43:04.902Z,22.00
2017-10-13T10:44:04.947Z,22.13
2017-10-13T10:45:04.935Z,22.19
2017-10-13T10:46:04.946Z,22.19
2017-10-13T10:47:04.974Z,22.25
2017-10-13T10:48:05.002Z,22.13
2017-10-13T10:49:04.997Z,20.94
2017-10-13T10:50:04.987Z,20.25
2017-10-13T10:51:05.011Z,20.38
2017-10-13T10:52:05.030Z,20.44
2017-10-13T10:53:05.030Z,19.81
2017-10-13T10:54:05.035Z,19.19
2017-10-13T10:55:05.107Z,18.75
2017-10-13T10:56:05.081Z,18.50
2017-10-13T10:57:05.080Z,18.31
2017-10-13T10:58:05.086Z,18.13
2017-10-13T10:59:05.141Z,18.00
2017-10-13T11:00:05.139Z,17.81
2017-10-13T11:01:05.135Z,17.63
2017-10-13T11:02:05.146Z,17.50
2017-10-13T11:03:05.166Z,17.44
2017-10-13T11:04:05.164Z,17.31
2017-10-13T11:05:05.188Z,17.25
2017-10-13T11:06:05.197Z,17.13
2017-10-13T11:07:05.224Z,17.13
2017-10-13T11:08:05.213Z,17.06
2017-10-13T11:09:05.224Z,17.06
2017-10-13T11:10:05.242Z,17.13
2017-10-13T11:11:05.242Z,17.19
2017-10-13T11:12:05.263Z,17.31
2017-10-13T11:13:05.281Z,17.38
2017-10-13T11:14:05.313Z,17.50
2017-10-13T11:15:05.317Z,17.50
2017-10-13T11:16:05.342Z,17.63
2017-10-13T11:17:05.328Z,17.81
2017-10-13T11:18:05.358Z,17.94
2017-10-13T11:19:05.365Z,18.13
2017-10-13T11:20:05.351Z,18.19
2017-10-13T11:21:05.383Z,18.25
2017-10-13T11:22:05.382Z,18.25
2017-10-13T11:23:05.405Z,18.31
2017-10-13T11:24:05.458Z,18.31
2017-10-13T11:25:05.473Z,18.25
2017-10-13T11:26:05.444Z,18.19
2017-10-13T11:27:05.441Z,18.19
2017-10-13T11:28:05.468Z,18.25
2017-10-13T11:29:05.476Z,18.19
2017-10-13T11:30:05.496Z,18.19
2017-10-13T11:31:05.533Z,18.19
2017-10-13T11:32:05.526Z,18.13
2017-10-13T11:33:05.539Z,18.06
2017-10-13T11:34:05.543Z,17.94
2017-10-13T11:35:05.548Z,17.94
2017-10-13T11:36:05.572Z,17.94
2017-10-13T11:37:05.582Z,17.88
2017-10-13T11:38:05.601Z,17.81
2017-10-13T11:39:05.609Z,17.81
2017-10-13T11:40:05.611Z,17.75
2017-10-13T11:41:05.641Z,17.69
2017-10-13T11:42:05.635Z,17.56
2017-10-13T11:43:05.662Z,17.50
2017-10-13T11:44:05.664Z,17.44
2017-10-13T11:45:05.684Z,17.38
2017-10-13T11:46:05.686Z,17.38
2017-10-13T11:47:05.707Z,17.31
2017-10-13T11:48:05.722Z,17.25
2017-10-13T11:49:05.727Z,17.25
2017-10-13T11:50:05.739Z,17.31
2017-10-13T11:51:05.762Z,17.38
2017-10-13T11:52:05.820Z,17.38
2017-10-13T11:53:05.789Z,17.38
2017-10-13T11:54:05.806Z,17.44
2017-10-13T11:55:05.808Z,17.44
2017-10-13T11:56:05.817Z,17.50
2017-10-13T11:57:05.829Z,17.50
2017-10-13T11:58:05.843Z,17.56
2017-10-13T11:59:05.864Z,17.56
2017-10-13T12:00:05.864Z,17.56
2017-10-13T12:01:05.885Z,17.50
2017-10-13T12:02:05.887Z,17.50
2017-10-13T12:03:05.906Z,17.50
2017-10-13T12:04:05.917Z,17.38
2017-10-13T12:05:05.969Z,17.31
2017-10-13T12:06:05.942Z,17.19
2017-10-13T12:07:05.951Z,17.00
2017-10-13T12:08:06.000Z,16.88
2017-10-13T12:09:05.983Z,16.81
2017-10-13T12:10:05.996Z,16.69
2017-10-13T12:11:06.011Z,16.63
2017-10-13T12:12:06.031Z,16.50
2017-10-13T12:13:06.033Z,16.38
2017-10-13T12:14:06.045Z,16.31
2017-10-13T12:15:06.049Z,16.19
2017-10-13T12:16:06.063Z,16.13
2017-10-13T12:17:06.118Z,16.06
2017-10-13T12:18:06.113Z,16.00
2017-10-13T12:19:06.127Z,15.94
2017-10-13T12:20:06.129Z,15.88
2017-10-13T12:21:06.130Z,15.88
2017-10-13T12:22:06.169Z,15.81
2017-10-13T12:23:06.165Z,15.75
2017-10-13T12:24:06.174Z,15.75
2017-10-13T12:25:06.185Z,15.69
2017-10-13T12:26:06.202Z,15.63
2017-10-13T12:27:06.209Z,15.63
2017-10-13T12:28:06.220Z,15.56
2017-10-13T12:29:06.228Z,15.50
2017-10-13T12:30:06.244Z,15.50
2017-10-13T12:31:06.251Z,15.44
2017-10-13T12:32:06.281Z,15.44
2017-10-13T12:33:06.281Z,15.38
2017-10-13T12:34:06.285Z,15.38
2017-10-13T12:35:06.296Z,15.31
2017-10-13T12:36:06.332Z,15.31
2017-10-13T12:37:06.325Z,15.25
2017-10-13T12:38:06.337Z,15.25
2017-10-13T12:39:06.348Z,15.31
2017-10-13T12:40:06.363Z,15.25
2017-10-13T12:41:06.377Z,15.19
2017-10-13T12:42:06.382Z,15.25
2017-10-13T12:43:06.421Z,15.25
2017-10-13T12:44:06.415Z,15.31
2017-10-13T12:45:06.456Z,15.19
2017-10-13T12:46:06.463Z,15.19
2017-10-13T12:47:06.450Z,15.19
2017-10-13T12:48:06.488Z,15.19
2017-10-13T12:49:06.484Z,15.13
2017-10-13T12:50:06.498Z,15.13
2017-10-13T12:51:06.503Z,15.19
2017-10-13T12:52:06.509Z,15.13
2017-10-13T12:53:06.516Z,15.06
2017-10-13T12:54:06.527Z,15.00
2017-10-13T12:55:06.535Z,15.00
2017-10-13T12:56:06.548Z,15.00
2017-10-13T12:57:06.565Z,14.94
2017-10-13T12:58:06.580Z,14.94
2017-10-13T12:59:06.585Z,14.94
2017-10-13T13:00:06.604Z,14.88
2017-10-13T13:01:06.673Z,14.88
2017-10-13T13:02:06.633Z,14.88
2017-10-13T13:03:06.637Z,15.00
2017-10-13T13:04:06.650Z,15.00
2017-10-13T13:05:06.684Z,14.94
2017-10-13T13:06:06.723Z,15.00
2017-10-13T13:07:06.927Z,14.94